Time;durP1;ratioP1;P1;durP2;ratioP2;P2;SDS_P1;SDS_P2;PMS_P1;PMS_P2;Temp;Humidity;BMP_temperature;BMP_pressure;BME280_temperature;BME280_humidity;BME280_pressure;Samples;Min_cycle;Max_cycle;Signal;HPM_P1;HPM_P2
2022/03/24 00:04:33;;;;;;;;;;;8.70;99.90;;;;;;20795100;28;20037;-47
2022/03/24 00:14:34;;;;;;;24.73;9.75;;;8.60;99.90;;;;;;20794100;28;20435;-48
2022/03/24 04:02:47;;;;;;;21.85;7.80;;;6.20;99.90;;;;;;20809566;28;20451;-47
2022/03/24 04:12:50;;;;;;;26.40;9.10;;;6.20;99.90;;;;;;20814008;28;20030;-47
2022/03/24 04:22:53;;;;;;;21.85;8.65;;;6.20;99.90;;;;;;20815033;28;20057;-48
2022/03/24 04:32:55;;;;;;;18.85;8.50;;;6.10;99.90;;;;;;20814127;28;20041;-47
2022/03/24 04:42:57;;;;;;;25.23;9.32;;;6.00;99.90;;;;;;20816433;28;20549;-47
2022/03/24 04:52:58;;;;;;;22.50;7.43;;;6.00;99.90;;;;;;20811289;28;20051;-52
2022/03/24 05:02:59;;;;;;;23.23;9.00;;;5.90;99.90;;;;;;20818932;28;20056;-47
2022/03/24 05:13:00;;;;;;;22.02;7.20;;;5.90;99.90;;;;;;20827607;28;20056;-47
2022/03/24 05:23:01;;;;;;;20.65;7.40;;;5.80;99.90;;;;;;20828027;28;20057;-47
2022/03/24 05:33:03;;;;;;;24.92;8.15;;;5.80;99.90;;;;;;20828752;28;20033;-48
2022/03/24 05:43:04;;;;;;;19.63;8.13;;;5.70;99.90;;;;;;20825966;28;20152;-47
2022/03/24 05:53:05;;;;;;;24.02;7.93;;;5.60;99.90;;;;;;20821334;28;20041;-47
2022/03/24 06:03:07;;;;;;;17.58;7.60;;;5.60;99.90;;;;;;20825772;28;20537;-47
2022/03/24 06:13:08;;;;;;;18.63;7.22;;;5.60;99.90;;;;;;20817235;28;20037;-47
2022/03/24 06:23:09;;;;;;;22.38;8.93;;;5.60;99.90;;;;;;20824734;28;20049;-47
2022/03/24 06:33:11;;;;;;;16.42;6.85;;;5.70;99.90;;;;;;20821946;28;20056;-48
2022/03/24 06:43:13;;;;;;;20.77;7.13;;;5.80;99.90;;;;;;20819069;28;20041;-47
2022/03/24 06:53:15;;;;;;;18.60;6.78;;;6.00;99.90;;;;;;20820224;28;20049;-48
2022/03/24 07:03:16;;;;;;;18.50;7.18;;;6.20;99.90;;;;;;20819301;28;20051;-48
2022/03/24 07:13:17;;;;;;;16.88;7.18;;;6.50;99.90;;;;;;20817352;28;20038;-48
2022/03/24 07:23:18;;;;;;;19.48;7.97;;;6.90;99.90;;;;;;20820797;28;20047;-48
2022/03/24 07:33:20;;;;;;;19.60;8.55;;;7.40;99.90;;;;;;20813659;28;20508;-48
2022/03/24 07:43:22;;;;;;;18.27;7.63;;;7.90;99.90;;;;;;20810681;28;20045;-55
2022/03/24 07:53:39;;;;;;;16.65;8.13;;;8.50;99.90;;;;;;20818677;28;20042;-47
2022/03/24 08:03:40;;;;;;;19.17;7.80;;;9.10;99.90;;;;;;20817237;28;20425;-48
2022/03/24 08:13:41;;;;;;;16.50;6.50;;;9.60;99.90;;;;;;20810771;28;20038;-47
2022/03/24 08:23:42;;;;;;;17.92;7.93;;;10.10;99.90;;;;;;20814055;28;20290;-48
2022/03/24 08:33:43;;;;;;;26.73;8.40;;;10.70;99.90;;;;;;20811469;28;20119;-48
2022/03/24 08:43:44;;;;;;;20.23;6.35;;;11.10;99.90;;;;;;20803922;28;20041;-48
2022/03/24 08:53:47;;;;;;;17.20;6.38;;;11.70;99.90;;;;;;20806120;28;20050;-48
2022/03/24 09:03:51;;;;;;;16.40;6.55;;;12.30;99.90;;;;;;20800755;28;20183;-47
2022/03/24 09:13:52;;;;;;;18.33;6.47;;;12.80;99.90;;;;;;20801708;28;20538;-48
2022/03/24 09:23:53;;;;;;;16.55;6.35;;;13.30;99.90;;;;;;20800901;28;20045;-48
2022/03/24 09:33:54;;;;;;;13.27;5.60;;;13.70;99.90;;;;;;20803440;28;20048;-48
2022/03/24 09:43:57;;;;;;;13.90;5.75;;;14.10;96.60;;;;;;20804760;28;20037;-48
2022/03/24 09:53:58;;;;;;;12.38;5.38;;;14.30;96.70;;;;;;20812092;28;20113;-49
2022/03/24 10:04:14;;;;;;;12.35;5.45;;;14.70;93.30;;;;;;20806291;28;20045;-48
2022/03/24 10:14:22;;;;;;;13.82;6.00;;;14.90;92.20;;;;;;20817075;28;20033;-48
2022/03/24 10:24:23;;;;;;;13.43;5.63;;;15.20;91.00;;;;;;20816891;28;20067;-48
2022/03/24 10:34:39;;;;;;;16.33;7.05;;;15.80;90.20;;;;;;20819175;28;20059;-49
2022/03/24 10:45:04;;;;;;;12.77;5.90;;;16.10;90.10;;;;;;20818639;28;20056;-48
2022/03/24 10:55:06;;;;;;;23.63;7.05;;;16.50;87.70;;;;;;20813541;28;20046;-52
2022/03/24 11:05:12;;;;;;;14.82;6.35;;;17.10;85.20;;;;;;20808247;28;20412;-48
2022/03/24 11:15:13;;;;;;;15.70;5.88;;;17.10;85.20;;;;;;20799258;28;20124;-48
2022/03/24 11:25:17;;;;;;;15.15;6.88;;;17.60;81.40;;;;;;20811765;28;20040;-48
2022/03/24 11:35:20;;;;;;;11.82;4.97;;;18.10;82.70;;;;;;20813326;28;20059;-50
2022/03/24 11:45:32;;;;;;;16.85;5.25;;;18.30;79.20;;;;;;20810120;28;20041;-48
2022/03/24 11:55:34;;;;;;;10.50;4.38;;;18.60;80.80;;;;;;20809040;28;20055;-49
2022/03/24 12:05:51;;;;;;;11.88;4.75;;;19.10;81.70;;;;;;20807143;28;20044;-48
2022/03/24 12:16:12;;;;;;;13.17;4.43;;;19.00;82.50;;;;;;20803784;28;20052;-48
2022/03/24 12:26:16;;;;;;;10.65;5.13;;;19.50;79.30;;;;;;20802511;28;20574;-58
2022/03/24 12:36:36;;;;;;;9.57;3.78;;;19.90;79.30;;;;;;20803900;28;20050;-49
2022/03/24 12:46:40;;;;;;;15.07;4.50;;;19.80;80.40;;;;;;20802160;28;20154;-50
2022/03/24 12:56:43;;;;;;;13.50;5.65;;;19.90;81.40;;;;;;20804718;28;20055;-48
2022/03/24 13:06:45;;;;;;;16.02;6.85;;;20.30;82.70;;;;;;20807200;28;20037;-49
2022/03/24 13:17:01;;;;;;;13.07;6.32;;;20.20;83.70;;;;;;20802119;28;20045;-48
2022/03/24 13:27:03;;;;;;;9.25;4.45;;;20.70;87.70;;;;;;20795163;28;20459;-49
2022/03/24 13:37:15;;;;;;;10.63;4.72;;;20.50;85.20;;;;;;20802893;28;20053;-50
2022/03/24 13:47:20;;;;;;;12.15;6.45;;;20.60;86.60;;;;;;20804328;28;20042;-51
2022/03/24 13:57:23;;;;;;;10.85;5.22;;;20.60;85.40;;;;;;20804892;28;20045;-52
2022/03/24 14:07:24;;;;;;;18.48;7.05;;;20.50;83.30;;;;;;20800219;28;20041;-49
2022/03/24 14:17:25;;;;;;;17.77;7.75;;;21.00;83.60;;;;;;20802232;28;20045;-51
2022/03/24 14:27:27;;;;;;;15.13;6.75;;;21.30;81.30;;;;;;20802809;28;20041;-50
2022/03/24 14:37:38;;;;;;;14.63;6.85;;;20.60;84.00;;;;;;20807563;28;20068;-50
2022/03/24 14:47:39;;;;;;;21.52;7.85;;;20.00;85.50;;;;;;20817992;28;20134;-50
2022/03/24 14:57:40;;;;;;;21.90;9.55;;;19.00;88.60;;;;;;20817235;28;20052;-49
2022/03/24 15:07:44;;;;;;;18.75;9.35;;;18.60;88.80;;;;;;20811564;28;20029;-49
2022/03/24 15:17:45;;;;;;;18.42;7.78;;;18.40;89.90;;;;;;20810890;28;20038;-51
2022/03/24 15:27:46;;;;;;;22.23;9.35;;;18.20;90.20;;;;;;20815702;28;20033;-50
2022/03/24 15:37:49;;;;;;;21.05;9.15;;;18.00;90.60;;;;;;20813847;28;20072;-49
2022/03/24 15:47:50;;;;;;;20.35;7.63;;;18.00;90.30;;;;;;20808347;28;20038;-50
2022/03/24 15:57:51;;;;;;;23.83;8.68;;;17.60;91.20;;;;;;20772830;28;20049;-54
2022/03/24 16:07:52;;;;;;;18.40;7.63;;;17.40;91.90;;;;;;20788907;28;20563;-49
2022/03/24 16:17:53;;;;;;;20.92;8.80;;;17.20;92.70;;;;;;20785953;28;20045;-49
2022/03/24 16:27:55;;;;;;;21.25;8.20;;;16.90;93.10;;;;;;20782761;28;20428;-49
2022/03/24 16:37:56;;;;;;;22.80;8.05;;;16.70;94.00;;;;;;20784703;28;20053;-49
2022/03/24 16:47:57;;;;;;;19.00;8.82;;;16.50;94.60;;;;;;20786248;28;20354;-49
2022/03/24 16:57:59;;;;;;;18.63;8.32;;;16.20;95.10;;;;;;20788994;28;20607;-49
2022/03/24 17:08:02;;;;;;;23.02;8.90;;;16.10;95.60;;;;;;20790842;28;20041;-49
2022/03/24 17:18:03;;;;;;;20.55;8.40;;;15.80;96.30;;;;;;20782192;28;20052;-49
2022/03/24 17:28:05;;;;;;;23.85;9.02;;;15.60;96.20;;;;;;20755281;28;20065;-49
2022/03/24 17:38:07;;;;;;;22.10;8.70;;;15.40;96.90;;;;;;20780272;28;20041;-49
2022/03/24 17:48:09;;;;;;;24.02;9.00;;;15.20;97.50;;;;;;20772592;28;20041;-49
2022/03/24 17:58:10;;;;;;;21.35;7.93;;;15.00;99.00;;;;;;20779734;28;20071;-49
2022/03/24 18:08:13;;;;;;;24.00;9.77;;;14.70;99.60;;;;;;20762451;28;20057;-49
2022/03/24 18:18:15;;;;;;;23.15;8.82;;;14.40;99.90;;;;;;20797268;28;20047;-49
2022/03/24 18:28:17;;;;;;;23.05;8.75;;;14.10;99.90;;;;;;20766260;28;20388;-49
2022/03/24 18:38:19;;;;;;;18.50;7.57;;;13.90;99.90;;;;;;20800277;28;20033;-49
2022/03/24 18:48:20;;;;;;;23.52;9.30;;;13.70;99.90;;;;;;20786600;28;20052;-49
2022/03/24 18:58:22;;;;;;;24.90;9.85;;;13.50;99.90;;;;;;20787657;28;20053;-49
2022/03/24 19:08:23;;;;;;;21.35;9.18;;;13.20;99.90;;;;;;20774269;28;20048;-49
2022/03/24 19:18:25;;;;;;;22.58;7.93;;;12.90;99.90;;;;;;20835618;23;20048;-83
2022/03/24 19:28:26;;;;;;;26.30;9.40;;;12.70;99.90;;;;;;20817644;28;20034;-81
2022/03/24 19:38:27;;;;;;;20.25;8.55;;;12.50;99.90;;;;;;20802496;23;20149;-48
2022/03/24 19:48:28;;;;;;;17.17;6.63;;;12.20;99.90;;;;;;20784982;28;20048;-48
2022/03/24 19:58:29;;;;;;;16.85;5.55;;;11.90;99.90;;;;;;20794928;28;20045;-48
2022/03/24 20:08:31;;;;;;;13.25;5.70;;;11.70;99.90;;;;;;20780088;28;20033;-48
2022/03/24 20:18:32;;;;;;;15.52;6.38;;;11.40;99.90;;;;;;20792968;28;20048;-48
2022/03/24 20:28:33;;;;;;;21.20;5.70;;;11.30;99.90;;;;;;20778389;28;20033;-48
2022/03/24 20:38:35;;;;;;;15.98;5.88;;;11.30;99.90;;;;;;20781036;28;20688;-48
2022/03/24 20:48:36;;;;;;;17.50;6.45;;;11.10;99.90;;;;;;20770583;28;20048;-48
2022/03/24 20:58:37;;;;;;;12.00;5.32;;;10.80;99.90;;;;;;20790592;28;20049;-48
2022/03/24 21:08:39;;;;;;;13.80;5.50;;;10.70;99.90;;;;;;20777809;28;20045;-48
2022/03/24 21:18:41;;;;;;;16.15;6.82;;;10.60;99.90;;;;;;20784702;28;20041;-48
2022/03/24 21:28:42;;;;;;;15.70;6.13;;;10.50;99.90;;;;;;20777596;28;20496;-48
2022/03/24 21:38:44;;;;;;;14.02;6.07;;;10.30;99.90;;;;;;20789656;28;20042;-48
2022/03/24 21:48:45;;;;;;;17.50;5.88;;;10.00;99.90;;;;;;20769837;28;20598;-48
2022/03/24 21:58:46;;;;;;;15.93;6.18;;;9.80;99.90;;;;;;20802404;28;20045;-48
2022/03/24 22:08:47;;;;;;;17.15;6.95;;;9.60;99.90;;;;;;20791628;28;20037;-48
2022/03/24 22:18:48;;;;;;;19.00;7.88;;;9.50;99.90;;;;;;20799250;28;20045;-48
2022/03/24 22:28:49;;;;;;;21.17;7.68;;;9.40;99.90;;;;;;20793325;28;20528;-48
2022/03/24 22:38:52;;;;;;;24.63;8.98;;;9.20;99.90;;;;;;20797092;28;20054;-48
2022/03/24 22:48:53;;;;;;;18.33;7.65;;;9.10;99.90;;;;;;20789177;28;20048;-48
2022/03/24 22:58:54;;;;;;;20.90;7.40;;;9.00;99.90;;;;;;20780436;28;20056;-48
2022/03/24 23:08:57;;;;;;;23.13;9.07;;;8.90;99.90;;;;;;20795666;28;20045;-48
2022/03/24 23:18:59;;;;;;;24.38;9.45;;;8.80;99.90;;;;;;20786558;28;20053;-48
2022/03/24 23:29:00;;;;;;;26.83;9.60;;;8.80;99.90;;;;;;20791575;28;20037;-48
2022/03/24 23:39:01;;;;;;;29.42;11.15;;;8.70;99.90;;;;;;20791545;28;20057;-48
2022/03/24 23:49:03;;;;;;;26.23;9.93;;;8.70;99.90;;;;;;20793996;28;20041;-48
2022/03/24 23:59:05;;;;;;;31.08;10.95;;;8.60;99.90;;;;;;20791547;28;20096;-48
